Time;durP1;ratioP1;P1;durP2;ratioP2;P2;SDS_P1;SDS_P2;PMS_P1;PMS_P2;Temp;Humidity;BMP_temperature;BMP_pressure;BME280_temperature;BME280_humidity;BME280_pressure;Samples;Min_cycle;Max_cycle;Signal;HPM_P1;HPM_P2
2022/11/27 00:00:55;;;;;;;;;;;5.10;99.90;;;;;;5098292;27;19973;-69
2022/11/27 00:03:21;;;;;;;;;;;5.10;99.90;;;;;;5082852;27;19920;-68
2022/11/27 00:05:56;;;;;;;;;;;5.10;99.90;;;;;;5114599;27;20349;-69
2022/11/27 00:08:25;;;;;;;;;;;5.00;99.90;;;;;;5129609;27;19969;-69
2022/11/27 00:10:51;;;;;;;;;;;5.00;99.90;;;;;;5116813;27;19928;-69
2022/11/27 00:13:19;;;;;;;;;;;4.90;99.90;;;;;;5116772;27;20297;-69
2022/11/27 00:15:45;;;;;;;;;;;4.90;99.90;;;;;;5111445;27;19919;-69
2022/11/27 00:18:11;;;;;;;;;;;4.90;99.90;;;;;;5114785;27;19935;-69
2022/11/27 00:20:51;;;;;;;;;;;4.90;99.90;;;;;;5096443;27;19931;-69
2022/11/27 00:23:17;;;;;;;;;;;4.90;99.90;;;;;;5113697;27;20314;-69
2022/11/27 00:25:52;;;;;;;;;;;4.90;99.90;;;;;;5113859;27;20020;-69
2022/11/27 00:28:18;;;;;;;;;;;4.90;99.90;;;;;;5114200;27;19919;-69
2022/11/27 00:30:44;;;;;;;;;;;4.90;99.90;;;;;;5145038;27;19926;-68
2022/11/27 00:33:12;;;;;;;;;;;4.90;99.90;;;;;;5095605;28;20034;-69
2022/11/27 00:35:38;;;;;;;;;;;5.10;99.90;;;;;;5125313;27;19920;-69
2022/11/27 00:38:04;;;;;;;;;;;4.90;99.90;;;;;;5113094;27;19919;-69
2022/11/27 00:40:33;;;;;;;;;;;4.90;99.90;;;;;;5115640;27;19931;-69
2022/11/27 00:43:01;;;;;;;;;;;4.90;99.90;;;;;;5113424;27;19958;-69
2022/11/27 00:45:30;;;;;;;;;;;4.90;99.90;;;;;;5094344;28;19931;-69
2022/11/27 00:47:58;;;;;;;;;;;4.80;99.90;;;;;;5113606;27;19942;-69
2022/11/27 00:50:30;;;;;;;;;;;4.90;99.90;;;;;;5113349;27;19932;-68
2022/11/27 00:52:57;;;;;;;;;;;4.80;99.90;;;;;;5097367;28;20405;-69
2022/11/27 00:55:22;;;;;;;;;;;4.80;99.90;;;;;;5116346;28;20348;-69
2022/11/27 00:57:50;;;;;;;;;;;4.80;99.90;;;;;;5111172;28;19930;-69
2022/11/27 01:00:16;;;;;;;;;;;4.70;99.90;;;;;;5126786;27;20018;-69
2022/11/27 01:02:45;;;;;;;;;;;4.80;99.90;;;;;;5096878;28;20357;-69
2022/11/27 01:05:10;;;;;;;;;;;4.70;99.90;;;;;;5114120;28;19927;-69
2022/11/27 01:07:36;;;;;;;;;;;4.70;99.90;;;;;;5113357;28;19928;-69
2022/11/27 01:10:05;;;;;;;;;;;4.70;99.90;;;;;;5113607;28;19923;-69
2022/11/27 01:12:30;;;;;;;;;;;4.70;99.90;;;;;;5096329;28;19942;-68
2022/11/27 01:14:59;;;;;;;;;;;4.60;99.90;;;;;;5113263;28;20337;-69
2022/11/27 01:17:24;;;;;;;;;;;4.60;99.90;;;;;;5113927;28;19923;-69
2022/11/27 01:19:53;;;;;;;;;;;4.50;99.90;;;;;;5114074;28;19927;-69
2022/11/27 01:22:19;;;;;;;;;;;4.50;99.90;;;;;;5107629;28;19920;-69
2022/11/27 01:24:45;;;;;;;;;;;4.50;99.90;;;;;;5113517;27;20047;-69
2022/11/27 01:27:10;;;;;;;;;;;4.40;99.90;;;;;;5117643;28;20017;-68
2022/11/27 01:29:36;;;;;;;;;;;4.40;99.90;;;;;;5098159;28;19962;-68
2022/11/27 01:32:01;;;;;;;;;;;4.40;99.90;;;;;;5129097;27;20376;-69
2022/11/27 01:34:33;;;;;;;;;;;4.40;99.90;;;;;;5111627;28;19935;-68
2022/11/27 01:36:58;;;;;;;;;;;4.30;99.90;;;;;;5111261;28;19966;-69
2022/11/27 01:39:24;;;;;;;;;;;4.30;99.90;;;;;;5109301;28;19920;-69
2022/11/27 01:41:49;;;;;;;;;;;4.60;99.90;;;;;;5131701;27;19988;-68
2022/11/27 01:44:24;;;;;;;;;;;4.30;99.90;;;;;;5110677;28;19988;-69
2022/11/27 01:46:54;;;;;;;;;;;4.30;99.90;;;;;;5113948;28;19920;-69
2022/11/27 01:49:38;;;;;;;;;;;4.20;99.90;;;;;;5109787;28;20002;-69
2022/11/27 01:52:12;;;;;;;;;;;4.20;99.90;;;;;;5147172;27;20047;-68
2022/11/27 01:54:47;;;;;;;;;;;4.20;99.90;;;;;;5115950;28;19962;-69
2022/11/27 01:57:18;;;;;;;;;;;4.10;99.90;;;;;;5112947;28;19934;-69
2022/11/27 01:59:46;;;;;;;;;;;4.10;99.90;;;;;;5112782;27;20283;-69
2022/11/27 02:02:18;;;;;;;;;;;4.20;99.90;;;;;;5115388;27;20008;-69
2022/11/27 02:04:44;;;;;;;;;;;4.10;99.90;;;;;;5113968;27;19931;-69
2022/11/27 02:07:09;;;;;;;;;;;4.10;99.90;;;;;;5117765;27;20007;-69
2022/11/27 02:09:35;;;;;;;;;;;4.10;99.90;;;;;;5115641;27;20372;-69
2022/11/27 02:12:06;;;;;;;;;;;4.10;99.90;;;;;;5117731;27;20376;-68
2022/11/27 02:14:48;;;;;;;;;;;4.10;99.90;;;;;;5117072;27;20427;-69
2022/11/27 02:17:36;;;;;;;;;;;4.10;99.90;;;;;;5118693;27;19919;-69
2022/11/27 02:20:22;;;;;;;;;;;4.10;99.90;;;;;;5113940;27;19965;-69
2022/11/27 02:23:10;;;;;;;;;;;4.10;99.90;;;;;;5117386;27;19972;-69
2022/11/27 02:25:47;;;;;;;;;;;4.10;99.90;;;;;;5115758;27;19935;-68
2022/11/27 02:28:31;;;;;;;;;;;4.10;99.90;;;;;;5123929;27;20006;-69
2022/11/27 02:31:04;;;;;;;;;;;4.10;99.90;;;;;;5115558;27;19927;-69
2022/11/27 02:33:31;;;;;;;;;;;4.30;99.90;;;;;;5113717;27;19926;-69
2022/11/27 02:36:09;;;;;;;;;;;4.10;99.90;;;;;;5117227;27;19967;-68
2022/11/27 02:38:49;;;;;;;;;;;4.10;99.90;;;;;;5116559;27;19961;-68
2022/11/27 02:41:18;;;;;;;;;;;4.10;99.90;;;;;;5113926;27;19931;-69
2022/11/27 02:43:48;;;;;;;;;;;4.10;99.90;;;;;;5111518;27;19969;-69
2022/11/27 02:46:17;;;;;;;;;;;4.10;99.90;;;;;;5135698;27;19927;-69
2022/11/27 02:48:48;;;;;;;;;;;4.20;99.90;;;;;;5116451;27;20061;-68
2022/11/27 02:51:16;;;;;;;;;;;4.60;99.90;;;;;;5115769;27;19927;-69
2022/11/27 02:53:44;;;;;;;;;;;4.10;99.90;;;;;;5112651;27;20356;-69
2022/11/27 02:56:16;;;;;;;;;;;4.10;99.90;;;;;;5113024;27;19963;-69
2022/11/27 02:58:44;;;;;;;;;;;4.10;99.90;;;;;;5115075;27;19934;-69
2022/11/27 03:01:10;;;;;;;;;;;4.10;99.90;;;;;;5112968;27;19920;-69
2022/11/27 03:03:44;;;;;;;;;;;4.10;99.90;;;;;;5119031;27;20293;-68
2022/11/27 03:06:11;;;;;;;;;;;4.10;99.90;;;;;;5112259;27;19979;-69
2022/11/27 03:08:55;;;;;;;;;;;4.10;99.90;;;;;;5132761;27;20006;-69
2022/11/27 03:11:40;;;;;;;;;;;4.10;99.90;;;;;;5111348;27;20280;-69
2022/11/27 03:14:07;;;;;;;;;;;4.10;99.90;;;;;;5115549;27;19951;-68
2022/11/27 03:16:48;;;;;;;;;;;4.10;99.90;;;;;;5132275;27;20572;-69
2022/11/27 03:19:49;;;;;;;;;;;4.10;99.90;;;;;;5133707;27;20026;-69
2022/11/27 03:22:17;;;;;;;;;;;4.10;99.90;;;;;;5078080;28;19931;-69
2022/11/27 03:24:43;;;;;;;;;;;4.10;99.90;;;;;;5108844;27;19919;-68
2022/11/27 03:27:11;;;;;;;;;;;4.20;99.90;;;;;;5130232;27;19942;-69
2022/11/27 03:29:54;;;;;;;;;;;4.30;99.90;;;;;;5130217;27;20028;-69
2022/11/27 03:32:20;;;;;;;;;;;4.30;99.90;;;;;;5099366;27;19930;-68
2022/11/27 03:34:49;;;;;;;;;;;4.30;99.90;;;;;;5130427;27;20025;-68
2022/11/27 03:37:20;;;;;;;;;;;4.20;99.90;;;;;;5114690;27;20015;-69
2022/11/27 03:39:53;;;;;;;;;;;4.20;99.90;;;;;;5148465;27;19927;-68
2022/11/27 03:42:29;;;;;;;;;;;4.20;99.90;;;;;;5114191;27;19959;-68
2022/11/27 03:44:55;;;;;;;;;;;4.20;99.90;;;;;;5112973;27;19919;-69
2022/11/27 03:47:39;;;;;;;;;;;4.20;99.90;;;;;;5115775;27;19930;-69
2022/11/27 03:50:04;;;;;;;;;;;4.20;99.90;;;;;;5112542;27;19927;-68
2022/11/27 03:52:49;;;;;;;;;;;4.20;99.90;;;;;;5110983;27;19920;-68
2022/11/27 03:55:17;;;;;;;;;;;4.20;99.90;;;;;;5115376;27;19923;-68
2022/11/27 03:57:55;;;;;;;;;;;4.30;99.90;;;;;;5114014;27;20407;-69
2022/11/27 04:00:24;;;;;;;;;;;4.30;99.90;;;;;;5112848;27;19927;-68
2022/11/27 04:02:51;;;;;;;;;;;4.30;99.90;;;;;;5117427;27;19996;-69
2022/11/27 04:05:17;;;;;;;;;;;4.60;99.90;;;;;;5116500;27;19946;-69
2022/11/27 04:07:42;;;;;;;;;;;4.40;99.90;;;;;;5115914;27;20377;-68
2022/11/27 04:10:09;;;;;;;;;;;4.30;99.90;;;;;;5097303;28;19919;-69
2022/11/27 04:12:37;;;;;;;;;;;4.30;99.90;;;;;;5107866;27;20010;-68
2022/11/27 04:15:06;;;;;;;;;;;4.30;99.90;;;;;;5110754;27;20346;-69
2022/11/27 04:17:32;;;;;;;;;;;5.90;99.90;;;;;;5121239;27;19972;-69
2022/11/27 04:19:58;;;;;;;;;;;4.20;99.90;;;;;;5114714;27;19927;-68
2022/11/27 04:22:23;;;;;;;;;;;4.20;99.90;;;;;;5119797;27;20512;-69
2022/11/27 04:24:49;;;;;;;;;;;4.20;99.90;;;;;;5108950;27;19927;-69
2022/11/27 04:27:22;;;;;;;;;;;4.20;99.90;;;;;;5141235;27;19919;-69
2022/11/27 04:29:48;;;;;;;;;;;4.20;99.90;;;;;;5093504;28;19964;-69
2022/11/27 04:32:17;;;;;;;;;;;4.20;99.90;;;;;;5114919;27;20414;-69
2022/11/27 04:34:45;;;;;;;;;;;4.20;99.90;;;;;;5111503;27;19927;-69
2022/11/27 04:37:11;;;;;;;;;;;4.30;99.90;;;;;;5092698;27;19919;-68
2022/11/27 04:39:36;;;;;;;;;;;4.20;99.90;;;;;;5111833;27;20470;-69
2022/11/27 04:42:04;;;;;;;;;;;4.20;99.90;;;;;;5100870;28;20377;-68
2022/11/27 04:44:32;;;;;;;;;;;4.20;99.90;;;;;;5103841;27;19926;-69
2022/11/27 04:46:58;;;;;;;;;;;4.20;99.90;;;;;;5111227;28;20041;-69
2022/11/27 04:49:23;;;;;;;;;;;4.60;99.90;;;;;;5114529;27;19930;-69
2022/11/27 04:51:49;;;;;;;;;;;4.20;99.90;;;;;;5108318;27;20438;-69
2022/11/27 04:54:15;;;;;;;;;;;4.20;99.90;;;;;;5075922;28;19924;-69
2022/11/27 04:56:40;;;;;;;;;;;4.20;99.90;;;;;;5090971;28;19924;-69
2022/11/27 04:59:06;;;;;;;;;;;4.10;99.90;;;;;;5109707;28;20452;-69
2022/11/27 05:01:34;;;;;;;;;;;4.20;99.90;;;;;;5108293;28;19931;-68
2022/11/27 05:03:59;;;;;;;;;;;4.10;99.90;;;;;;5125367;27;20438;-69
2022/11/27 05:06:31;;;;;;;;;;;4.10;99.90;;;;;;5111936;28;19928;-69
2022/11/27 05:09:03;;;;;;;;;;;4.10;99.90;;;;;;5112990;28;20338;-69
2022/11/27 05:11:29;;;;;;;;;;;4.10;99.90;;;;;;5127516;27;19928;-69
2022/11/27 05:16:50;;;;;;;;;;;4.10;99.90;;;;;;5110928;28;19920;-68
2022/11/27 05:19:16;;;;;;;;;;;4.10;99.90;;;;;;5101509;28;19920;-69
2022/11/27 05:21:42;;;;;;;;;;;4.10;99.90;;;;;;5124885;27;19934;-69
2022/11/27 05:24:07;;;;;;;;;;;4.30;99.90;;;;;;5127388;27;20508;-69
2022/11/27 05:26:39;;;;;;;;;;;4.10;99.90;;;;;;5111435;28;19919;-68
2022/11/27 05:29:09;;;;;;;;;;;4.10;99.90;;;;;;5147632;27;19924;-69
2022/11/27 05:31:41;;;;;;;;;;;4.10;99.90;;;;;;5128267;27;19928;-69
2022/11/27 05:34:06;;;;;;;;;;;4.10;99.90;;;;;;5116861;27;19951;-69
2022/11/27 05:36:33;;;;;;;;;;;4.00;99.90;;;;;;5118024;27;19919;-69
2022/11/27 05:38:59;;;;;;;;;;;4.10;99.90;;;;;;5096323;27;19928;-69
2022/11/27 05:41:32;;;;;;;;;;;4.10;99.90;;;;;;5117376;27;20392;-69
2022/11/27 05:43:57;;;;;;;;;;;4.00;99.90;;;;;;5117860;27;19930;-68
2022/11/27 05:46:29;;;;;;;;;;;4.00;99.90;;;;;;5116871;27;19927;-68
2022/11/27 05:48:55;;;;;;;;;;;4.00;99.90;;;;;;5116683;27;20603;-69
2022/11/27 05:51:26;;;;;;;;;;;4.00;99.90;;;;;;5115225;27;20011;-69
2022/11/27 05:53:57;;;;;;;;;;;4.00;99.90;;;;;;5105747;27;20366;-69
2022/11/27 05:56:29;;;;;;;;;;;3.90;99.90;;;;;;5118097;27;19927;-68
2022/11/27 05:58:58;;;;;;;;;;;3.90;99.90;;;;;;5101437;27;20014;-69
2022/11/27 06:01:32;;;;;;;;;;;4.00;99.90;;;;;;5115127;27;19957;-69
2022/11/27 06:04:04;;;;;;;;;;;4.20;99.90;;;;;;5130391;27;19924;-69
2022/11/27 06:06:32;;;;;;;;;;;4.00;99.90;;;;;;5115148;27;19919;-69
2022/11/27 06:08:57;;;;;;;;;;;4.00;99.90;;;;;;5118283;27;19920;-69
2022/11/27 06:11:25;;;;;;;;;;;4.00;99.90;;;;;;5114272;27;20017;-69
2022/11/27 06:13:53;;;;;;;;;;;4.00;99.90;;;;;;5101314;27;20017;-69
2022/11/27 06:16:29;;;;;;;;;;;4.30;99.90;;;;;;5117000;27;19920;-69
2022/11/27 06:18:56;;;;;;;;;;;4.00;99.90;;;;;;5098161;27;21175;-69
2022/11/27 06:21:25;;;;;;;;;;;4.00;99.90;;;;;;5116570;27;20377;-69
2022/11/27 06:23:57;;;;;;;;;;;4.00;99.90;;;;;;5115408;27;19963;-69
2022/11/27 06:26:27;;;;;;;;;;;4.00;99.90;;;;;;5094651;27;20393;-69
2022/11/27 06:28:53;;;;;;;;;;;4.00;99.90;;;;;;5117484;27;19935;-69
2022/11/27 06:31:25;;;;;;;;;;;3.90;99.90;;;;;;5097568;28;19920;-68
2022/11/27 06:33:54;;;;;;;;;;;3.90;99.90;;;;;;5118366;27;19963;-69
2022/11/27 06:36:20;;;;;;;;;;;3.90;99.90;;;;;;5096212;27;21969;-69
2022/11/27 06:38:47;;;;;;;;;;;4.00;99.90;;;;;;5147516;27;19919;-69
2022/11/27 06:41:14;;;;;;;;;;;4.10;99.90;;;;;;5114728;27;19961;-69
2022/11/27 06:43:40;;;;;;;;;;;3.90;99.90;;;;;;5116609;27;20418;-69
2022/11/27 06:46:12;;;;;;;;;;;3.90;99.90;;;;;;5117923;27;19936;-69
2022/11/27 06:48:38;;;;;;;;;;;3.90;99.90;;;;;;5113898;27;20403;-69
2022/11/27 06:51:09;;;;;;;;;;;4.00;99.90;;;;;;5115565;27;19919;-69
2022/11/27 06:53:41;;;;;;;;;;;4.00;99.90;;;;;;5115179;27;19968;-69
2022/11/27 06:56:13;;;;;;;;;;;4.00;99.90;;;;;;5117720;27;19919;-69
2022/11/27 06:58:43;;;;;;;;;;;4.00;99.90;;;;;;5117401;27;19943;-69
2022/11/27 07:01:15;;;;;;;;;;;4.00;99.90;;;;;;5117903;27;19967;-69
2022/11/27 07:03:41;;;;;;;;;;;4.00;99.90;;;;;;5100025;27;20384;-69
2022/11/27 07:06:11;;;;;;;;;;;4.00;99.90;;;;;;5115677;27;19926;-69
2022/11/27 07:08:37;;;;;;;;;;;4.00;99.90;;;;;;5115451;27;19963;-69
2022/11/27 07:11:11;;;;;;;;;;;4.00;99.90;;;;;;5126885;27;19967;-69
2022/11/27 07:13:40;;;;;;;;;;;3.90;99.90;;;;;;5096091;27;19962;-68
2022/11/27 07:16:10;;;;;;;;;;;4.10;99.90;;;;;;5108665;27;19920;-68
2022/11/27 07:18:52;;;;;;;;;;;3.90;99.90;;;;;;5114670;27;20327;-69
2022/11/27 07:21:35;;;;;;;;;;;3.90;99.90;;;;;;5113507;27;19928;-69
2022/11/27 07:24:10;;;;;;;;;;;3.90;99.90;;;;;;5130394;27;20420;-68
2022/11/27 07:26:38;;;;;;;;;;;4.00;99.90;;;;;;5094108;28;19966;-69
2022/11/27 07:29:24;;;;;;;;;;;4.00;99.90;;;;;;5114377;27;20384;-68
2022/11/27 07:31:57;;;;;;;;;;;4.00;99.90;;;;;;5112447;27;19924;-69
2022/11/27 07:34:23;;;;;;;;;;;4.00;99.90;;;;;;5113239;27;21378;-68
2022/11/27 07:36:56;;;;;;;;;;;4.00;99.90;;;;;;5115765;27;19924;-68
2022/11/27 07:39:41;;;;;;;;;;;4.00;99.90;;;;;;5144859;27;19942;-69
2022/11/27 07:42:10;;;;;;;;;;;4.00;99.90;;;;;;5117001;27;20317;-68
2022/11/27 07:44:54;;;;;;;;;;;4.00;99.90;;;;;;5122470;27;20540;-69
2022/11/27 07:47:23;;;;;;;;;;;4.00;99.90;;;;;;5109050;27;19920;-69
2022/11/27 07:49:49;;;;;;;;;;;4.00;99.90;;;;;;5139734;27;20027;-68
2022/11/27 07:52:14;;;;;;;;;;;4.00;99.90;;;;;;5114348;27;20018;-69
2022/11/27 07:54:40;;;;;;;;;;;4.10;99.90;;;;;;5109479;27;19931;-68
2022/11/27 07:57:05;;;;;;;;;;;4.10;99.90;;;;;;5113668;27;19919;-69
2022/11/27 07:59:31;;;;;;;;;;;4.10;99.90;;;;;;5141515;27;19920;-68
2022/11/27 08:01:57;;;;;;;;;;;4.10;99.90;;;;;;5116921;27;19920;-68
2022/11/27 08:04:23;;;;;;;;;;;4.20;99.90;;;;;;5099344;27;19920;-68
2022/11/27 08:06:49;;;;;;;;;;;4.20;99.90;;;;;;5096194;27;20295;-68
2022/11/27 08:09:14;;;;;;;;;;;4.20;99.90;;;;;;5111738;27;19919;-69
2022/11/27 08:11:40;;;;;;;;;;;4.20;99.90;;;;;;5131855;27;20424;-69
2022/11/27 08:14:07;;;;;;;;;;;4.20;99.90;;;;;;5119101;27;19919;-69
2022/11/27 08:16:34;;;;;;;;;;;4.20;99.90;;;;;;5118387;27;19942;-68
2022/11/27 08:18:59;;;;;;;;;;;4.30;99.90;;;;;;5120299;27;19920;-68
2022/11/27 08:21:25;;;;;;;;;;;4.30;99.90;;;;;;5107816;27;19924;-69
2022/11/27 08:23:51;;;;;;;;;;;4.30;99.90;;;;;;5117669;27;19920;-69
2022/11/27 08:26:17;;;;;;;;;;;4.30;99.90;;;;;;5116375;27;20421;-68
2022/11/27 08:28:42;;;;;;;;;;;4.40;99.90;;;;;;5137039;27;20001;-68
2022/11/27 08:31:10;;;;;;;;;;;4.40;99.90;;;;;;5116027;27;20288;-69
2022/11/27 08:33:36;;;;;;;;;;;4.40;99.90;;;;;;5113642;27;19919;-68
2022/11/27 08:36:02;;;;;;;;;;;4.50;99.90;;;;;;5127366;27;19942;-69
2022/11/27 08:38:28;;;;;;;;;;;4.50;99.90;;;;;;5111030;27;19934;-69
2022/11/27 08:40:54;;;;;;;;;;;4.50;99.90;;;;;;5080937;27;20014;-68
2022/11/27 08:43:20;;;;;;;;;;;4.50;99.90;;;;;;5112171;27;20301;-69
2022/11/27 08:45:46;;;;;;;;;;;4.50;99.90;;;;;;5116216;27;20055;-69
2022/11/27 08:48:12;;;;;;;;;;;4.50;99.90;;;;;;5108060;27;19927;-69
2022/11/27 08:50:37;;;;;;;;;;;4.50;99.90;;;;;;5113529;27;20011;-69
2022/11/27 08:53:03;;;;;;;;;;;4.60;99.90;;;;;;5097305;27;19931;-68
2022/11/27 08:55:28;;;;;;;;;;;4.60;99.90;;;;;;5114403;27;19924;-69
2022/11/27 08:57:54;;;;;;;;;;;4.60;99.90;;;;;;5094588;28;19972;-69
2022/11/27 09:00:20;;;;;;;;;;;4.60;99.90;;;;;;5096744;28;19947;-69
2022/11/27 09:02:46;;;;;;;;;;;4.70;99.90;;;;;;5096866;28;20010;-69
2022/11/27 09:05:11;;;;;;;;;;;4.70;99.90;;;;;;5107537;28;19967;-69
2022/11/27 09:07:37;;;;;;;;;;;4.70;99.90;;;;;;5117523;27;19924;-69
2022/11/27 09:10:03;;;;;;;;;;;4.70;99.90;;;;;;5122140;27;19962;-67
2022/11/27 09:12:29;;;;;;;;;;;4.80;99.90;;;;;;5104014;28;19927;-68
2022/11/27 09:14:54;;;;;;;;;;;4.80;99.90;;;;;;5099005;27;20416;-69
2022/11/27 09:17:20;;;;;;;;;;;4.80;99.90;;;;;;5122733;27;20298;-69
2022/11/27 09:19:46;;;;;;;;;;;4.80;99.90;;;;;;5120428;27;19932;-69
2022/11/27 09:22:11;;;;;;;;;;;4.80;99.90;;;;;;5124424;27;19920;-68
2022/11/27 09:24:37;;;;;;;;;;;4.80;99.90;;;;;;5101356;28;19920;-69
2022/11/27 09:27:03;;;;;;;;;;;4.80;99.90;;;;;;5105673;28;20188;-69
2022/11/27 09:29:28;;;;;;;;;;;4.80;99.90;;;;;;5120019;27;19966;-69
2022/11/27 09:31:54;;;;;;;;;;;5.00;99.90;;;;;;5136957;27;19920;-69
2022/11/27 09:34:19;;;;;;;;;;;4.80;99.90;;;;;;5123416;27;20384;-69
2022/11/27 09:36:45;;;;;;;;;;;4.80;99.90;;;;;;5125310;27;19955;-69
2022/11/27 09:39:12;;;;;;;;;;;4.80;99.90;;;;;;5121313;27;19938;-69
2022/11/27 09:41:44;;;;;;;;;;;4.80;99.90;;;;;;5120798;27;19931;-69
2022/11/27 09:44:13;;;;;;;;;;;4.80;99.90;;;;;;5107702;27;20380;-69
2022/11/27 09:46:40;;;;;;;;;;;4.70;99.90;;;;;;5126560;27;19948;-69
2022/11/27 09:49:21;;;;;;;;;;;4.70;99.90;;;;;;5116059;27;19928;-69
2022/11/27 09:51:53;;;;;;;;;;;4.70;99.90;;;;;;5116316;27;19920;-69
2022/11/27 09:54:23;;;;;;;;;;;4.70;99.90;;;;;;5119425;27;20296;-68
2022/11/27 09:56:49;;;;;;;;;;;4.70;99.90;;;;;;5121586;27;20364;-69
2022/11/27 09:59:17;;;;;;;;;;;4.70;99.90;;;;;;5129886;27;19919;-69
2022/11/27 10:01:43;;;;;;;;;;;4.70;99.90;;;;;;5122133;27;19923;-69
2022/11/27 10:04:10;;;;;;;;;;;4.70;99.90;;;;;;5118971;27;19967;-69
2022/11/27 10:06:35;;;;;;;;;;;4.70;99.90;;;;;;5138543;27;19934;-69
2022/11/27 10:09:05;;;;;;;;;;;4.70;99.90;;;;;;5123168;27;19920;-69
2022/11/27 10:11:33;;;;;;;;;;;4.70;99.90;;;;;;5156271;27;19920;-68
2022/11/27 10:14:06;;;;;;;;;;;4.70;99.90;;;;;;5124817;27;19920;-68
2022/11/27 10:16:38;;;;;;;;;;;4.70;99.90;;;;;;5119676;27;19934;-68
2022/11/27 10:19:18;;;;;;;;;;;4.70;99.90;;;;;;5124530;27;20002;-68
2022/11/27 10:21:54;;;;;;;;;;;4.70;99.90;;;;;;5123744;27;19927;-69
2022/11/27 10:24:36;;;;;;;;;;;4.70;99.90;;;;;;5117973;27;19950;-69
2022/11/27 10:27:07;;;;;;;;;;;4.70;99.90;;;;;;5100240;27;19928;-69
2022/11/27 10:29:35;;;;;;;;;;;4.70;99.90;;;;;;5124666;27;19919;-69
2022/11/27 10:32:03;;;;;;;;;;;4.70;99.90;;;;;;5103027;27;19919;-68
2022/11/27 10:34:40;;;;;;;;;;;4.70;99.90;;;;;;5115706;27;19920;-69
2022/11/27 10:37:27;;;;;;;;;;;4.70;99.90;;;;;;5118402;27;19920;-69
2022/11/27 10:39:55;;;;;;;;;;;4.70;99.90;;;;;;5130829;27;19927;-68
2022/11/27 10:42:41;;;;;;;;;;;4.70;99.90;;;;;;5116210;27;19929;-69
2022/11/27 10:45:18;;;;;;;;;;;4.70;99.90;;;;;;5112108;27;19931;-69
2022/11/27 10:47:45;;;;;;;;;;;4.70;99.90;;;;;;5119508;27;19963;-69
2022/11/27 10:50:15;;;;;;;;;;;4.70;99.90;;;;;;5118297;27;19973;-69
2022/11/27 10:53:07;;;;;;;;;;;4.80;99.90;;;;;;5117476;27;19934;-69
2022/11/27 10:55:32;;;;;;;;;;;4.80;99.90;;;;;;5153183;27;20363;-69
2022/11/27 10:58:05;;;;;;;;;;;4.80;99.90;;;;;;5118323;27;19919;-69
2022/11/27 11:00:33;;;;;;;;;;;4.80;99.90;;;;;;5101762;27;19924;-69
2022/11/27 11:03:03;;;;;;;;;;;4.80;99.90;;;;;;5108687;27;19920;-69
2022/11/27 11:05:29;;;;;;;;;;;4.90;99.90;;;;;;5099541;27;19994;-69
2022/11/27 11:08:00;;;;;;;;;;;4.90;99.90;;;;;;5103335;27;20303;-68
2022/11/27 11:10:34;;;;;;;;;;;4.80;99.90;;;;;;5117241;27;20456;-69
2022/11/27 11:13:20;;;;;;;;;;;4.90;99.90;;;;;;5103398;27;19923;-68
2022/11/27 11:15:48;;;;;;;;;;;4.90;99.90;;;;;;5123472;27;19919;-69
2022/11/27 11:18:18;;;;;;;;;;;4.90;99.90;;;;;;5117634;27;20014;-69
2022/11/27 11:20:51;;;;;;;;;;;4.90;99.90;;;;;;5119508;27;19931;-69
2022/11/27 11:23:22;;;;;;;;;;;5.00;99.90;;;;;;5123106;27;19920;-69
2022/11/27 11:25:53;;;;;;;;;;;5.00;99.90;;;;;;5107863;27;19919;-69
2022/11/27 11:28:19;;;;;;;;;;;5.00;99.90;;;;;;5135027;27;19919;-69
2022/11/27 11:31:03;;;;;;;;;;;5.00;99.90;;;;;;5139480;27;20295;-69
2022/11/27 11:33:31;;;;;;;;;;;5.00;99.90;;;;;;5135924;27;19920;-69
2022/11/27 11:36:00;;;;;;;;;;;5.10;99.90;;;;;;5119373;27;19927;-69
2022/11/27 11:38:28;;;;;;;;;;;5.10;99.90;;;;;;5100845;28;19982;-69
2022/11/27 11:41:05;;;;;;;;;;;5.10;99.90;;;;;;5110254;28;19931;-69
2022/11/27 11:43:35;;;;;;;;;;;5.10;99.90;;;;;;5121054;27;20018;-69
2022/11/27 11:46:16;;;;;;;;;;;5.10;99.90;;;;;;5119693;27;20020;-69
2022/11/27 11:48:51;;;;;;;;;;;5.10;99.90;;;;;;5122196;27;19928;-69
2022/11/27 11:51:21;;;;;;;;;;;5.10;99.90;;;;;;5102028;27;20285;-69
2022/11/27 11:53:56;;;;;;;;;;;5.20;99.90;;;;;;5099517;27;19920;-68
2022/11/27 11:56:21;;;;;;;;;;;5.10;99.90;;;;;;5120651;27;19920;-69
2022/11/27 11:59:10;;;;;;;;;;;5.20;99.90;;;;;;5120968;27;19943;-69
2022/11/27 12:01:45;;;;;;;;;;;5.20;99.90;;;;;;5108103;27;20384;-69
2022/11/27 12:04:21;;;;;;;;;;;5.30;99.90;;;;;;5112428;28;19942;-69
2022/11/27 12:06:55;;;;;;;;;;;5.30;99.90;;;;;;5101897;27;19930;-69
2022/11/27 12:09:24;;;;;;;;;;;5.30;99.90;;;;;;5116244;27;20065;-69
2022/11/27 12:12:11;;;;;;;;;;;5.30;99.90;;;;;;5118419;27;19965;-69
2022/11/27 12:14:44;;;;;;;;;;;5.30;99.90;;;;;;5117845;27;20416;-69
2022/11/27 12:17:12;;;;;;;;;;;5.40;99.90;;;;;;5124388;27;20529;-69
2022/11/27 12:19:58;;;;;;;;;;;5.30;99.90;;;;;;5106609;28;20041;-69
2022/11/27 12:22:24;;;;;;;;;;;5.40;99.90;;;;;;5120389;27;20392;-69
2022/11/27 12:24:59;;;;;;;;;;;5.40;99.90;;;;;;5123552;27;20014;-69
2022/11/27 12:27:30;;;;;;;;;;;5.40;99.90;;;;;;5118533;27;19973;-70
2022/11/27 12:30:02;;;;;;;;;;;5.40;99.90;;;;;;5114858;27;19967;-69
2022/11/27 12:32:40;;;;;;;;;;;5.50;99.90;;;;;;5100705;28;19920;-69
2022/11/27 12:35:18;;;;;;;;;;;5.50;99.90;;;;;;5118011;27;19986;-69
2022/11/27 12:37:50;;;;;;;;;;;5.50;99.90;;;;;;5104945;27;19933;-69
2022/11/27 12:43:36;;;;;;;;;;;5.50;99.90;;;;;;5118438;27;20406;-69
2022/11/27 12:49:24;;;;;;;;;;;5.60;99.90;;;;;;5114736;27;19927;-69
2022/11/27 12:52:00;;;;;;;;;;;5.50;99.90;;;;;;5113498;27;19927;-69
2022/11/27 12:54:41;;;;;;;;;;;5.50;99.90;;;;;;5112176;27;20338;-69
2022/11/27 12:57:12;;;;;;;;;;;5.50;99.90;;;;;;5112323;28;19924;-69
2022/11/27 12:59:42;;;;;;;;;;;5.50;99.90;;;;;;5137279;27;19974;-69
2022/11/27 13:02:19;;;;;;;;;;;5.50;99.90;;;;;;5114174;28;19971;-69
2022/11/27 13:04:48;;;;;;;;;;;5.60;99.90;;;;;;5117503;28;20441;-69
2022/11/27 13:07:17;;;;;;;;;;;5.50;99.90;;;;;;5114559;28;19997;-69
2022/11/27 13:09:51;;;;;;;;;;;5.50;99.90;;;;;;5118944;28;20010;-70
2022/11/27 13:12:22;;;;;;;;;;;5.50;99.90;;;;;;5102003;28;19920;-69
2022/11/27 13:14:53;;;;;;;;;;;5.60;99.90;;;;;;5106595;28;19928;-69
2022/11/27 13:17:19;;;;;;;;;;;5.50;99.90;;;;;;5123262;27;20280;-69
2022/11/27 13:19:49;;;;;;;;;;;5.60;99.90;;;;;;5095159;28;19934;-69
2022/11/27 13:22:20;;;;;;;;;;;5.50;99.90;;;;;;5114727;28;19927;-69
2022/11/27 13:24:46;;;;;;;;;;;5.60;99.90;;;;;;5112199;28;19920;-70
2022/11/27 13:27:11;;;;;;;;;;;5.60;99.90;;;;;;5114010;28;19927;-69
2022/11/27 13:29:49;;;;;;;;;;;5.60;99.90;;;;;;5101121;28;19927;-69
2022/11/27 13:32:26;;;;;;;;;;;5.60;99.90;;;;;;5125498;27;19919;-70
2022/11/27 13:34:54;;;;;;;;;;;5.60;99.90;;;;;;5139741;27;19952;-69
2022/11/27 13:37:26;;;;;;;;;;;5.60;99.90;;;;;;5116788;28;19927;-69
2022/11/27 13:40:21;;;;;;;;;;;5.60;99.90;;;;;;5119118;28;19934;-69
2022/11/27 13:42:48;;;;;;;;;;;5.60;99.90;;;;;;5117226;27;19924;-69
2022/11/27 13:45:20;;;;;;;;;;;5.60;99.90;;;;;;5111405;28;19963;-69
2022/11/27 13:47:46;;;;;;;;;;;5.60;99.90;;;;;;5111461;27;20001;-69
2022/11/27 13:50:14;;;;;;;;;;;5.60;99.90;;;;;;5095290;28;19920;-69
2022/11/27 13:52:49;;;;;;;;;;;5.60;99.90;;;;;;5143669;27;19927;-69
2022/11/27 13:55:22;;;;;;;;;;;5.60;99.90;;;;;;5119303;27;20439;-69
2022/11/27 13:57:52;;;;;;;;;;;5.60;99.90;;;;;;5119888;27;20367;-69
2022/11/27 14:00:29;;;;;;;;;;;5.60;99.90;;;;;;5103891;27;20359;-69
2022/11/27 14:02:55;;;;;;;;;;;5.70;99.90;;;;;;5119506;27;19939;-69
2022/11/27 14:05:32;;;;;;;;;;;5.60;99.90;;;;;;5121451;27;19920;-69
2022/11/27 14:07:58;;;;;;;;;;;5.70;99.90;;;;;;5101495;27;19926;-69
2022/11/27 14:10:27;;;;;;;;;;;5.60;99.90;;;;;;5115081;27;19920;-69
2022/11/27 14:12:53;;;;;;;;;;;5.70;99.90;;;;;;5117505;27;19919;-69
2022/11/27 14:15:24;;;;;;;;;;;5.70;99.90;;;;;;5113248;27;20081;-69
2022/11/27 14:17:50;;;;;;;;;;;5.70;99.90;;;;;;5111532;27;19941;-69
2022/11/27 14:20:16;;;;;;;;;;;5.70;99.90;;;;;;5122178;27;19931;-69
2022/11/27 14:22:45;;;;;;;;;;;5.70;99.90;;;;;;5122976;27;19919;-69
2022/11/27 14:25:19;;;;;;;;;;;5.70;99.90;;;;;;5111705;27;19919;-68
2022/11/27 14:27:46;;;;;;;;;;;5.70;99.90;;;;;;5124179;27;20414;-68
2022/11/27 14:30:23;;;;;;;;;;;5.70;99.90;;;;;;5122907;27;19966;-68
2022/11/27 14:32:52;;;;;;;;;;;5.70;99.90;;;;;;5123531;27;19944;-68
2022/11/27 14:35:23;;;;;;;;;;;5.70;99.90;;;;;;5107290;28;19919;-69
2022/11/27 14:37:48;;;;;;;;;;;5.70;99.90;;;;;;5098721;28;19919;-69
2022/11/27 14:40:19;;;;;;;;;;;5.70;99.90;;;;;;5103322;27;19981;-69
2022/11/27 14:42:45;;;;;;;;;;;5.70;99.90;;;;;;5122223;27;19927;-69
2022/11/27 14:45:14;;;;;;;;;;;5.70;99.90;;;;;;5107204;27;19924;-69
2022/11/27 14:47:44;;;;;;;;;;;5.70;99.90;;;;;;5122003;27;19920;-69
2022/11/27 14:50:12;;;;;;;;;;;5.70;99.90;;;;;;5122410;27;20242;-69
2022/11/27 14:52:38;;;;;;;;;;;5.70;99.90;;;;;;5117055;27;20093;-69
2022/11/27 14:55:07;;;;;;;;;;;5.70;99.90;;;;;;5121347;27;20012;-69
2022/11/27 14:57:34;;;;;;;;;;;5.70;99.90;;;;;;5124507;27;19923;-68